Nashville, Tennessee
Traffic Map
Current Weather Conditions
Nashville, Tennessee
Clear Haze
Clear
56°
Feels Like: 56°
Wind Chill: 56° Ceiling: Unl
Heat Index: 56° Visibility: 6mi
Dew Point: 54° Wind: 5mph
Humidity: 93% Direction: 180° (S)
Pressure: 29.85in Gusts: 0mph
Raw Report DataKBNA 230453Z 18004KT 6SM BR CLR 13/12 A2985 RMK AO2 SLP107 T01330122
Traffic Incident Summary
Active as of:
Severity:
Category:
InformationThere was an issue retrieving the traffic information for this location. Please try a different location or try again shortly.
Advertisements
Track Severe Weather on mobile